JTA4 ROAH-RJBB
Flight info
| Callsign | JTA4 |
|---|---|
| Flight time | 1h 40m |
| Altitude | 39000 |
| Route | AMAMI Y53 NIXOV |
| Aircraft | B738/M-SDE2E3FGHIRWXY/LB1 |
Departure
| Time | 2026-05-04 02:39 |
|---|---|
| Airport | Naha International Airport (ROAH) |
Arrival
| Time | 2026-05-04 04:20 |
|---|---|
| Airport | Kansai International Airport (RJBB) |
| Time | Latitude | Longitude | Altitude | Speed | Heading |
|---|---|---|---|---|---|
| 2026-05-04 02:07 | 26.20008 | 127.64884 | 21 ft | 0 kts | 358° |
| 2026-05-04 02:29 | 26.20001 | 127.64885 | 21 ft | 2 kts | 341° |
| 2026-05-04 02:30 | 26.19987 | 127.64893 | 21 ft | 2 kts | 300° |
| 2026-05-04 02:30 | 26.19983 | 127.64911 | 21 ft | 2 kts | 270° |
| 2026-05-04 02:30 | 26.19983 | 127.64917 | 21 ft | 0 kts | 268° |
| 2026-05-04 02:31 | 26.19982 | 127.64903 | 21 ft | 4 kts | 269° |
| 2026-05-04 02:31 | 26.19982 | 127.64856 | 21 ft | 8 kts | 270° |
| 2026-05-04 02:32 | 26.19982 | 127.64849 | 23 ft | 0 kts | 270° |
| 2026-05-04 02:33 | 26.19981 | 127.64836 | 22 ft | 4 kts | 266° |
| 2026-05-04 02:33 | 26.19959 | 127.64794 | 21 ft | 9 kts | 212° |
| 2026-05-04 02:33 | 26.19876 | 127.64790 | 21 ft | 15 kts | 175° |
| 2026-05-04 02:34 | 26.19754 | 127.64795 | 21 ft | 19 kts | 179° |
| 2026-05-04 02:34 | 26.19625 | 127.64800 | 21 ft | 18 kts | 176° |
| 2026-05-04 02:34 | 26.19501 | 127.64806 | 21 ft | 18 kts | 178° |
| 2026-05-04 02:34 | 26.19381 | 127.64811 | 21 ft | 17 kts | 177° |
| 2026-05-04 02:35 | 26.19265 | 127.64816 | 21 ft | 16 kts | 178° |
| 2026-05-04 02:35 | 26.19154 | 127.64821 | 21 ft | 16 kts | 178° |
| 2026-05-04 02:35 | 26.19049 | 127.64826 | 21 ft | 15 kts | 176° |
| 2026-05-04 02:35 | 26.18946 | 127.64832 | 22 ft | 14 kts | 179° |
| 2026-05-04 02:36 | 26.18848 | 127.64836 | 21 ft | 14 kts | 178° |
| 2026-05-04 02:36 | 26.18754 | 127.64841 | 21 ft | 13 kts | 178° |
| 2026-05-04 02:36 | 26.18663 | 127.64845 | 22 ft | 13 kts | 178° |
| 2026-05-04 02:36 | 26.18575 | 127.64849 | 22 ft | 12 kts | 178° |
| 2026-05-04 02:37 | 26.18491 | 127.64853 | 22 ft | 12 kts | 178° |
| 2026-05-04 02:37 | 26.18407 | 127.64859 | 21 ft | 12 kts | 175° |
| 2026-05-04 02:37 | 26.18326 | 127.64861 | 21 ft | 12 kts | 179° |
| 2026-05-04 02:37 | 26.18257 | 127.64834 | 21 ft | 11 kts | 240° |
| 2026-05-04 02:38 | 26.18243 | 127.64748 | 21 ft | 11 kts | 266° |
| 2026-05-04 02:38 | 26.18263 | 127.64667 | 21 ft | 11 kts | 316° |
| 2026-05-04 02:38 | 26.18300 | 127.64653 | 20 ft | 1 kts | 353° |
| 2026-05-04 02:38 | 26.18570 | 127.64639 | 21 ft | 81 kts | 358° |
| 2026-05-04 02:39 | 26.19390 | 127.64616 | 27 ft | 153 kts | 359° |
| 2026-05-04 02:39 | 26.20586 | 127.64443 | 513 ft | 183 kts | 354° |
| 2026-05-04 02:39 | 26.21874 | 127.64260 | 1064 ft | 189 kts | 358° |
| 2026-05-04 02:39 | 26.23221 | 127.64236 | 1520 ft | 197 kts | 1° |
| 2026-05-04 02:40 | 26.24633 | 127.64237 | 1915 ft | 214 kts | 1° |
| 2026-05-04 02:40 | 26.26157 | 127.64003 | 2423 ft | 233 kts | 339° |
| 2026-05-04 02:40 | 26.27618 | 127.63100 | 2964 ft | 242 kts | 333° |
| 2026-05-04 02:40 | 26.29075 | 127.62155 | 3465 ft | 243 kts | 332° |
| 2026-05-04 02:41 | 26.30549 | 127.61205 | 3952 ft | 248 kts | 330° |
| 2026-05-04 02:41 | 26.32082 | 127.60222 | 4472 ft | 259 kts | 327° |
| 2026-05-04 02:41 | 26.33663 | 127.59208 | 4992 ft | 270 kts | 325° |
| 2026-05-04 02:41 | 26.35323 | 127.58148 | 5478 ft | 279 kts | 325° |
| 2026-05-04 02:42 | 26.37028 | 127.57063 | 5999 ft | 284 kts | 326° |
| 2026-05-04 02:42 | 26.38755 | 127.55965 | 6498 ft | 288 kts | 325° |
| 2026-05-04 02:42 | 26.40332 | 127.54634 | 6938 ft | 281 kts | 303° |
| 2026-05-04 02:42 | 26.41149 | 127.52742 | 7414 ft | 267 kts | 277° |
| 2026-05-04 02:43 | 26.41153 | 127.50719 | 7894 ft | 259 kts | 256° |
| 2026-05-04 02:43 | 26.40538 | 127.48860 | 8369 ft | 255 kts | 237° |
| 2026-05-04 02:43 | 26.39440 | 127.47315 | 8899 ft | 255 kts | 230° |
| 2026-05-04 02:43 | 26.38257 | 127.45806 | 9493 ft | 260 kts | 230° |
| 2026-05-04 02:44 | 26.37054 | 127.44277 | 10247 ft | 264 kts | 230° |
| 2026-05-04 02:44 | 26.35833 | 127.42720 | 10938 ft | 267 kts | 229° |
| 2026-05-04 02:44 | 26.34365 | 127.41480 | 11617 ft | 273 kts | 207° |
| 2026-05-04 02:44 | 26.32532 | 127.40878 | 12354 ft | 279 kts | 191° |
| 2026-05-04 02:45 | 26.30575 | 127.40810 | 13116 ft | 282 kts | 185° |
| 2026-05-04 02:45 | 26.28612 | 127.40849 | 13868 ft | 282 kts | 185° |
| 2026-05-04 02:45 | 26.26652 | 127.40899 | 14543 ft | 281 kts | 185° |
| 2026-05-04 02:45 | 26.24700 | 127.40941 | 15237 ft | 279 kts | 186° |
| 2026-05-04 02:46 | 26.22744 | 127.40974 | 15808 ft | 284 kts | 186° |
| 2026-05-04 02:46 | 26.20742 | 127.40999 | 16295 ft | 291 kts | 186° |
| 2026-05-04 02:46 | 26.18689 | 127.41022 | 16794 ft | 299 kts | 186° |
| 2026-05-04 02:46 | 26.17303 | 127.41036 | 17133 ft | 303 kts | 186° |
| 2026-05-04 02:47 | 26.15166 | 127.41058 | 17639 ft | 310 kts | 187° |
| 2026-05-04 02:47 | 26.12980 | 127.41176 | 18132 ft | 323 kts | 175° |
| 2026-05-04 02:47 | 26.10837 | 127.42162 | 18609 ft | 346 kts | 153° |
| 2026-05-04 02:47 | 26.08680 | 127.44920 | 19201 ft | 375 kts | 120° |
| 2026-05-04 02:48 | 26.08087 | 127.47795 | 19657 ft | 392 kts | 92° |
| 2026-05-04 02:48 | 26.08277 | 127.49842 | 20002 ft | 396 kts | 81° |
| 2026-05-04 02:48 | 26.08839 | 127.52857 | 20473 ft | 400 kts | 78° |
| 2026-05-04 02:48 | 26.09483 | 127.55880 | 20954 ft | 403 kts | 78° |
| 2026-05-04 02:49 | 26.10122 | 127.58887 | 21422 ft | 406 kts | 78° |
| 2026-05-04 02:49 | 26.10748 | 127.61967 | 21911 ft | 409 kts | 79° |
| 2026-05-04 02:49 | 26.11351 | 127.65077 | 22406 ft | 411 kts | 79° |
| 2026-05-04 02:49 | 26.11935 | 127.68199 | 22918 ft | 413 kts | 79° |
| 2026-05-04 02:50 | 26.12510 | 127.71336 | 23432 ft | 415 kts | 79° |
| 2026-05-04 02:50 | 26.13083 | 127.74492 | 23896 ft | 416 kts | 80° |
| 2026-05-04 02:50 | 26.13654 | 127.77646 | 24344 ft | 416 kts | 80° |
| 2026-05-04 02:50 | 26.14226 | 127.80806 | 24806 ft | 416 kts | 80° |
| 2026-05-04 02:51 | 26.14800 | 127.83975 | 25258 ft | 417 kts | 80° |
| 2026-05-04 02:51 | 26.15373 | 127.87140 | 25714 ft | 417 kts | 80° |
| 2026-05-04 02:51 | 26.15947 | 127.90310 | 26169 ft | 417 kts | 80° |
| 2026-05-04 02:51 | 26.16665 | 127.93444 | 26474 ft | 422 kts | 66° |
| 2026-05-04 02:52 | 26.18221 | 127.96201 | 26768 ft | 422 kts | 45° |
| 2026-05-04 02:52 | 26.20410 | 127.98281 | 27062 ft | 418 kts | 27° |
| 2026-05-04 02:52 | 26.22901 | 127.99976 | 27389 ft | 420 kts | 26° |
| 2026-05-04 02:52 | 26.25430 | 128.01637 | 27679 ft | 424 kts | 26° |
| 2026-05-04 02:53 | 26.27986 | 128.03309 | 28003 ft | 428 kts | 26° |
| 2026-05-04 02:53 | 26.30560 | 128.05006 | 28283 ft | 431 kts | 26° |
| 2026-05-04 02:53 | 26.33148 | 128.06732 | 28584 ft | 435 kts | 26° |
| 2026-05-04 02:53 | 26.35749 | 128.08480 | 28905 ft | 438 kts | 27° |
| 2026-05-04 02:54 | 26.38364 | 128.10248 | 29216 ft | 440 kts | 27° |
| 2026-05-04 02:54 | 26.40988 | 128.12026 | 29531 ft | 443 kts | 27° |
| 2026-05-04 02:54 | 26.43629 | 128.13819 | 29854 ft | 445 kts | 27° |
| 2026-05-04 02:54 | 26.46283 | 128.15622 | 30189 ft | 447 kts | 27° |
| 2026-05-04 02:55 | 26.51615 | 128.19245 | 30728 ft | 450 kts | 27° |
| 2026-05-04 02:55 | 26.54305 | 128.21074 | 31011 ft | 451 kts | 27° |
| 2026-05-04 02:55 | 26.56961 | 128.22880 | 31257 ft | 454 kts | 27° |
| 2026-05-04 02:56 | 26.59663 | 128.24719 | 31515 ft | 456 kts | 27° |
| 2026-05-04 02:56 | 26.62394 | 128.26578 | 31752 ft | 460 kts | 27° |
| 2026-05-04 02:56 | 26.65140 | 128.28448 | 31982 ft | 462 kts | 27° |
| 2026-05-04 02:56 | 26.67886 | 128.30354 | 32234 ft | 466 kts | 31° |
| 2026-05-04 02:57 | 26.70279 | 128.32830 | 32436 ft | 474 kts | 50° |
| 2026-05-04 02:57 | 26.72282 | 128.35700 | 32728 ft | 474 kts | 51° |
| 2026-05-04 02:57 | 26.74320 | 128.38676 | 32972 ft | 475 kts | 51° |
| 2026-05-04 02:57 | 26.76339 | 128.41606 | 33216 ft | 476 kts | 50° |
| 2026-05-04 02:58 | 26.78351 | 128.44490 | 33465 ft | 477 kts | 50° |
| 2026-05-04 02:58 | 26.80410 | 128.47412 | 33718 ft | 477 kts | 50° |
| 2026-05-04 02:58 | 26.82474 | 128.50322 | 33974 ft | 477 kts | 49° |
| 2026-05-04 02:58 | 26.84543 | 128.53233 | 34229 ft | 478 kts | 49° |
| 2026-05-04 02:59 | 26.86612 | 128.56148 | 34453 ft | 478 kts | 49° |
| 2026-05-04 02:59 | 26.88685 | 128.59071 | 34688 ft | 478 kts | 49° |
| 2026-05-04 02:59 | 26.90756 | 128.61996 | 34909 ft | 478 kts | 49° |
| 2026-05-04 02:59 | 26.92871 | 128.64855 | 35122 ft | 475 kts | 40° |
| 2026-05-04 03:00 | 26.95428 | 128.67029 | 35313 ft | 461 kts | 22° |
| 2026-05-04 03:00 | 26.98247 | 128.68713 | 35606 ft | 458 kts | 21° |
| 2026-05-04 03:00 | 27.01069 | 128.70368 | 35802 ft | 457 kts | 21° |
| 2026-05-04 03:00 | 27.03888 | 128.72024 | 36061 ft | 456 kts | 21° |
| 2026-05-04 03:01 | 27.06696 | 128.73689 | 36302 ft | 455 kts | 21° |
| 2026-05-04 03:01 | 27.09486 | 128.75359 | 36535 ft | 454 kts | 21° |
| 2026-05-04 03:01 | 27.12264 | 128.77035 | 36771 ft | 452 kts | 21° |
| 2026-05-04 03:01 | 27.15025 | 128.78709 | 37016 ft | 450 kts | 21° |
| 2026-05-04 03:02 | 27.17773 | 128.80379 | 37261 ft | 447 kts | 21° |
| 2026-05-04 03:02 | 27.20506 | 128.82044 | 37507 ft | 445 kts | 20° |
| 2026-05-04 03:02 | 27.23215 | 128.83694 | 37770 ft | 443 kts | 20° |
| 2026-05-04 03:03 | 27.28671 | 128.87008 | 37296 ft | 456 kts | 20° |
| 2026-05-04 03:03 | 27.31509 | 128.88727 | 36981 ft | 468 kts | 21° |
| 2026-05-04 03:03 | 27.34387 | 128.90477 | 37025 ft | 471 kts | 21° |
| 2026-05-04 03:04 | 27.40187 | 128.94023 | 37118 ft | 477 kts | 21° |
| 2026-05-04 03:04 | 27.46083 | 128.97631 | 37125 ft | 486 kts | 21° |
| 2026-05-04 03:05 | 27.52086 | 129.01305 | 37123 ft | 494 kts | 21° |
| 2026-05-04 03:05 | 27.58178 | 129.05038 | 37124 ft | 502 kts | 21° |
| 2026-05-04 03:06 | 27.64301 | 129.08797 | 37320 ft | 504 kts | 21° |
| 2026-05-04 03:06 | 27.67379 | 129.10691 | 37572 ft | 502 kts | 21° |
| 2026-05-04 03:06 | 27.70441 | 129.12577 | 37820 ft | 499 kts | 21° |
| 2026-05-04 03:06 | 27.73478 | 129.14448 | 38152 ft | 494 kts | 21° |
| 2026-05-04 03:07 | 27.76491 | 129.16304 | 38379 ft | 492 kts | 21° |
| 2026-05-04 03:07 | 27.79498 | 129.18154 | 38528 ft | 493 kts | 21° |
| 2026-05-04 03:07 | 27.82516 | 129.20010 | 38561 ft | 495 kts | 21° |
| 2026-05-04 03:08 | 27.88597 | 129.23754 | 38713 ft | 497 kts | 21° |
| 2026-05-04 03:08 | 27.91624 | 129.25623 | 38883 ft | 496 kts | 21° |
| 2026-05-04 03:08 | 27.94609 | 129.27469 | 39034 ft | 494 kts | 21° |
| 2026-05-04 03:09 | 28.00649 | 129.31204 | 39116 ft | 496 kts | 21° |
| 2026-05-04 03:09 | 28.06732 | 129.34966 | 39124 ft | 499 kts | 21° |
| 2026-05-04 03:10 | 28.12854 | 129.38761 | 39109 ft | 502 kts | 21° |
| 2026-05-04 03:10 | 28.18996 | 129.42573 | 39118 ft | 504 kts | 21° |
| 2026-05-04 03:11 | 28.25124 | 129.46471 | 39080 ft | 502 kts | 21° |
| 2026-05-04 03:11 | 28.31205 | 129.50200 | 39085 ft | 496 kts | 21° |
| 2026-05-04 03:12 | 28.37257 | 129.53936 | 39099 ft | 494 kts | 21° |
| 2026-05-04 03:12 | 28.43291 | 129.57704 | 39094 ft | 495 kts | 21° |
| 2026-05-04 03:13 | 28.49213 | 129.61725 | 39071 ft | 503 kts | 25° |
| 2026-05-04 03:13 | 28.55099 | 129.66108 | 39115 ft | 507 kts | 26° |
| 2026-05-04 03:14 | 28.61019 | 129.70527 | 39098 ft | 510 kts | 26° |
| 2026-05-04 03:14 | 28.67005 | 129.74941 | 39096 ft | 513 kts | 26° |
| 2026-05-04 03:15 | 28.72986 | 129.79331 | 39126 ft | 515 kts | 25° |
| 2026-05-04 03:15 | 28.79030 | 129.83768 | 39097 ft | 516 kts | 26° |
| 2026-05-04 03:16 | 28.85074 | 129.88219 | 39085 ft | 517 kts | 26° |
| 2026-05-04 03:16 | 28.91111 | 129.92672 | 39110 ft | 516 kts | 26° |
| 2026-05-04 03:17 | 28.97135 | 129.97121 | 39090 ft | 515 kts | 26° |
| 2026-05-04 03:17 | 29.03156 | 130.01572 | 39074 ft | 514 kts | 26° |
| 2026-05-04 03:18 | 29.09111 | 130.05982 | 39102 ft | 512 kts | 26° |
| 2026-05-04 03:18 | 29.15092 | 130.10416 | 39082 ft | 511 kts | 26° |
| 2026-05-04 03:19 | 29.21062 | 130.14850 | 39082 ft | 510 kts | 26° |
| 2026-05-04 03:19 | 29.27018 | 130.19278 | 39116 ft | 509 kts | 25° |
| 2026-05-04 03:20 | 29.32935 | 130.23682 | 39086 ft | 510 kts | 25° |
| 2026-05-04 03:20 | 29.38897 | 130.28126 | 39070 ft | 511 kts | 26° |
| 2026-05-04 03:21 | 29.44862 | 130.32580 | 39079 ft | 511 kts | 26° |
| 2026-05-04 03:21 | 29.50840 | 130.37051 | 39078 ft | 513 kts | 26° |
| 2026-05-04 03:22 | 29.56826 | 130.41534 | 39080 ft | 514 kts | 26° |
| 2026-05-04 03:22 | 29.62821 | 130.46031 | 39093 ft | 516 kts | 26° |
| 2026-05-04 03:23 | 29.68842 | 130.50553 | 39074 ft | 517 kts | 26° |
| 2026-05-04 03:23 | 29.74868 | 130.55087 | 39069 ft | 518 kts | 26° |
| 2026-05-04 03:24 | 29.80869 | 130.59608 | 39082 ft | 520 kts | 26° |
| 2026-05-04 03:24 | 29.86927 | 130.64179 | 39077 ft | 520 kts | 26° |
| 2026-05-04 03:25 | 29.92980 | 130.68754 | 39060 ft | 521 kts | 26° |
| 2026-05-04 03:25 | 29.99048 | 130.73346 | 39069 ft | 522 kts | 26° |
| 2026-05-04 03:26 | 30.05120 | 130.77947 | 39059 ft | 521 kts | 26° |
| 2026-05-04 03:26 | 30.11185 | 130.82550 | 39057 ft | 521 kts | 26° |
| 2026-05-04 03:27 | 30.17208 | 130.87129 | 39062 ft | 521 kts | 25° |
| 2026-05-04 03:27 | 30.23254 | 130.91733 | 39032 ft | 520 kts | 26° |
| 2026-05-04 03:28 | 30.29278 | 130.96328 | 39077 ft | 518 kts | 25° |
| 2026-05-04 03:28 | 30.35303 | 131.00929 | 39045 ft | 517 kts | 25° |
| 2026-05-04 03:29 | 30.41304 | 131.05518 | 39038 ft | 516 kts | 25° |
| 2026-05-04 03:29 | 30.47268 | 131.10086 | 39053 ft | 516 kts | 25° |
| 2026-05-04 03:30 | 30.53270 | 131.14689 | 39012 ft | 516 kts | 25° |
| 2026-05-04 03:30 | 30.59257 | 131.19291 | 39034 ft | 516 kts | 25° |
| 2026-05-04 03:31 | 30.65216 | 131.23879 | 39038 ft | 518 kts | 25° |
| 2026-05-04 03:31 | 30.71238 | 131.28520 | 39046 ft | 521 kts | 25° |
| 2026-05-04 03:32 | 30.77279 | 131.33185 | 39038 ft | 522 kts | 25° |
| 2026-05-04 03:32 | 30.83331 | 131.37867 | 39033 ft | 523 kts | 25° |
| 2026-05-04 03:33 | 30.88365 | 131.41767 | 39038 ft | 524 kts | 25° |
| 2026-05-04 03:33 | 30.94437 | 131.46477 | 39042 ft | 524 kts | 25° |
| 2026-05-04 03:34 | 31.00530 | 131.51209 | 39033 ft | 526 kts | 25° |
| 2026-05-04 03:34 | 31.06623 | 131.55950 | 39032 ft | 526 kts | 25° |
| 2026-05-04 03:35 | 31.12678 | 131.60670 | 39020 ft | 526 kts | 26° |
| 2026-05-04 03:35 | 31.18764 | 131.65421 | 39018 ft | 526 kts | 26° |
| 2026-05-04 03:36 | 31.24845 | 131.70176 | 39021 ft | 525 kts | 26° |
| 2026-05-04 03:36 | 31.30920 | 131.74931 | 39019 ft | 526 kts | 25° |
| 2026-05-04 03:37 | 31.36999 | 131.79698 | 39005 ft | 525 kts | 26° |
| 2026-05-04 03:37 | 31.43070 | 131.84472 | 39054 ft | 525 kts | 25° |
| 2026-05-04 03:38 | 31.49104 | 131.89223 | 39015 ft | 525 kts | 25° |
| 2026-05-04 03:38 | 31.55179 | 131.94012 | 39009 ft | 526 kts | 25° |
| 2026-05-04 03:39 | 31.61252 | 131.98809 | 38969 ft | 526 kts | 25° |
| 2026-05-04 03:39 | 31.67322 | 132.03611 | 38993 ft | 526 kts | 26° |
| 2026-05-04 03:40 | 31.73348 | 132.08386 | 38992 ft | 526 kts | 26° |
| 2026-05-04 03:40 | 31.79421 | 132.13204 | 38995 ft | 528 kts | 25° |
| 2026-05-04 03:41 | 31.85517 | 132.18050 | 38998 ft | 528 kts | 25° |
| 2026-05-04 03:41 | 31.91619 | 132.22909 | 39006 ft | 529 kts | 25° |
| 2026-05-04 03:42 | 31.97717 | 132.27773 | 38989 ft | 530 kts | 25° |
| 2026-05-04 03:42 | 32.03790 | 132.32625 | 38985 ft | 531 kts | 25° |
| 2026-05-04 03:43 | 32.09910 | 132.37522 | 38982 ft | 533 kts | 25° |
| 2026-05-04 03:43 | 32.15962 | 132.42672 | 38962 ft | 538 kts | 30° |
| 2026-05-04 03:44 | 32.21806 | 132.48246 | 38989 ft | 541 kts | 32° |
| 2026-05-04 03:44 | 32.27599 | 132.53849 | 38984 ft | 541 kts | 31° |
| 2026-05-04 03:45 | 32.33473 | 132.59460 | 38974 ft | 542 kts | 31° |
| 2026-05-04 03:45 | 32.39358 | 132.65049 | 38964 ft | 542 kts | 31° |
| 2026-05-04 03:46 | 32.45243 | 132.70642 | 38955 ft | 542 kts | 31° |
| 2026-05-04 03:46 | 32.51088 | 132.76214 | 38967 ft | 544 kts | 31° |
| 2026-05-04 03:47 | 32.56988 | 132.81851 | 38965 ft | 544 kts | 31° |
| 2026-05-04 03:47 | 32.62892 | 132.87502 | 38955 ft | 544 kts | 31° |
| 2026-05-04 03:48 | 32.68779 | 132.93148 | 38939 ft | 540 kts | 31° |
| 2026-05-04 03:48 | 32.74514 | 132.98743 | 38713 ft | 530 kts | 36° |
| 2026-05-04 03:48 | 32.77091 | 133.01852 | 38162 ft | 536 kts | 44° |
| 2026-05-04 03:49 | 32.79374 | 133.05410 | 37350 ft | 546 kts | 52° |
| 2026-05-04 03:49 | 32.81522 | 133.09160 | 36637 ft | 550 kts | 53° |
| 2026-05-04 03:49 | 32.83655 | 133.12961 | 35976 ft | 553 kts | 54° |
| 2026-05-04 03:49 | 32.85807 | 133.16750 | 35558 ft | 549 kts | 53° |
| 2026-05-04 03:50 | 32.87960 | 133.20467 | 35370 ft | 541 kts | 53° |
| 2026-05-04 03:50 | 32.90096 | 133.24093 | 35111 ft | 544 kts | 52° |
| 2026-05-04 03:50 | 32.92304 | 133.27805 | 34900 ft | 553 kts | 52° |
| 2026-05-04 03:50 | 32.94552 | 133.31575 | 34676 ft | 560 kts | 53° |
| 2026-05-04 03:51 | 32.96811 | 133.35377 | 34448 ft | 563 kts | 53° |
| 2026-05-04 03:51 | 32.99070 | 133.39196 | 34249 ft | 563 kts | 53° |
| 2026-05-04 03:51 | 33.01327 | 133.43019 | 34016 ft | 563 kts | 53° |
| 2026-05-04 03:51 | 33.03552 | 133.46791 | 33626 ft | 565 kts | 53° |
| 2026-05-04 03:52 | 33.05844 | 133.50685 | 33076 ft | 566 kts | 53° |
| 2026-05-04 03:52 | 33.08066 | 133.54469 | 32535 ft | 562 kts | 53° |
| 2026-05-04 03:52 | 33.10301 | 133.58279 | 32025 ft | 560 kts | 54° |
| 2026-05-04 03:52 | 33.12526 | 133.62080 | 31481 ft | 557 kts | 54° |
| 2026-05-04 03:53 | 33.14738 | 133.65859 | 30943 ft | 555 kts | 54° |
| 2026-05-04 03:53 | 33.16947 | 133.69636 | 30418 ft | 553 kts | 54° |
| 2026-05-04 03:53 | 33.19154 | 133.73413 | 29915 ft | 558 kts | 54° |
| 2026-05-04 03:53 | 33.21383 | 133.77232 | 29376 ft | 562 kts | 54° |
| 2026-05-04 03:54 | 33.23629 | 133.81084 | 28808 ft | 566 kts | 54° |
| 2026-05-04 03:54 | 33.25876 | 133.84942 | 28189 ft | 565 kts | 54° |
| 2026-05-04 03:54 | 33.28116 | 133.88794 | 27638 ft | 561 kts | 54° |
| 2026-05-04 03:54 | 33.30311 | 133.92571 | 27088 ft | 557 kts | 54° |
| 2026-05-04 03:55 | 33.32514 | 133.96362 | 26602 ft | 553 kts | 54° |
| 2026-05-04 03:55 | 33.34708 | 134.00138 | 26075 ft | 549 kts | 54° |
| 2026-05-04 03:55 | 33.36877 | 134.03875 | 25513 ft | 545 kts | 54° |
| 2026-05-04 03:55 | 33.39033 | 134.07593 | 25019 ft | 542 kts | 54° |
| 2026-05-04 03:56 | 33.41166 | 134.11274 | 24518 ft | 538 kts | 55° |
| 2026-05-04 03:56 | 33.43295 | 134.14957 | 24035 ft | 534 kts | 55° |
| 2026-05-04 03:56 | 33.45382 | 134.18574 | 23500 ft | 521 kts | 56° |
| 2026-05-04 03:56 | 33.47388 | 134.22118 | 23039 ft | 509 kts | 54° |
| 2026-05-04 03:57 | 33.49439 | 134.25471 | 22464 ft | 499 kts | 53° |
| 2026-05-04 03:57 | 33.51407 | 134.28838 | 21970 ft | 489 kts | 56° |
| 2026-05-04 03:57 | 33.53284 | 134.32198 | 21445 ft | 479 kts | 56° |
| 2026-05-04 03:57 | 33.55120 | 134.35496 | 20997 ft | 471 kts | 56° |
| 2026-05-04 03:58 | 33.58743 | 134.41900 | 20021 ft | 457 kts | 55° |
| 2026-05-04 03:58 | 33.60523 | 134.45016 | 19539 ft | 450 kts | 55° |
| 2026-05-04 03:58 | 33.62280 | 134.48094 | 19079 ft | 444 kts | 56° |
| 2026-05-04 03:59 | 33.64007 | 134.51139 | 18641 ft | 438 kts | 56° |
| 2026-05-04 03:59 | 33.65714 | 134.54157 | 18195 ft | 434 kts | 56° |
| 2026-05-04 03:59 | 33.67383 | 134.57103 | 17695 ft | 429 kts | 55° |
| 2026-05-04 03:59 | 33.69054 | 134.60058 | 17169 ft | 425 kts | 55° |
| 2026-05-04 04:00 | 33.70705 | 134.62979 | 16653 ft | 420 kts | 55° |
| 2026-05-04 04:00 | 33.72337 | 134.65870 | 16162 ft | 415 kts | 54° |
| 2026-05-04 04:00 | 33.73949 | 134.68730 | 15669 ft | 411 kts | 54° |
| 2026-05-04 04:00 | 33.75541 | 134.71554 | 15193 ft | 406 kts | 54° |
| 2026-05-04 04:01 | 33.77119 | 134.74356 | 14720 ft | 402 kts | 53° |
| 2026-05-04 04:01 | 33.78679 | 134.77127 | 14261 ft | 398 kts | 53° |
| 2026-05-04 04:01 | 33.80198 | 134.79829 | 13935 ft | 389 kts | 53° |
| 2026-05-04 04:01 | 33.81686 | 134.82479 | 13857 ft | 372 kts | 53° |
| 2026-05-04 04:02 | 33.83105 | 134.85006 | 13838 ft | 363 kts | 52° |
| 2026-05-04 04:02 | 33.84517 | 134.87518 | 13850 ft | 362 kts | 52° |
| 2026-05-04 04:02 | 33.85935 | 134.90025 | 13869 ft | 362 kts | 50° |
| 2026-05-04 04:02 | 33.87699 | 134.92120 | 13845 ft | 350 kts | 24° |
| 2026-05-04 04:03 | 33.89838 | 134.93311 | 13853 ft | 331 kts | 2° |
| 2026-05-04 04:03 | 33.92036 | 134.93822 | 13787 ft | 315 kts | 356° |
| 2026-05-04 04:03 | 33.94172 | 134.94216 | 13740 ft | 306 kts | 355° |
| 2026-05-04 04:03 | 33.96244 | 134.94586 | 13654 ft | 296 kts | 354° |
| 2026-05-04 04:04 | 33.98245 | 134.94942 | 13449 ft | 292 kts | 354° |
| 2026-05-04 04:04 | 34.00253 | 134.95301 | 13170 ft | 291 kts | 354° |
| 2026-05-04 04:04 | 34.02262 | 134.95664 | 12845 ft | 293 kts | 355° |
| 2026-05-04 04:04 | 34.04284 | 134.96037 | 12600 ft | 291 kts | 356° |
| 2026-05-04 04:05 | 34.06261 | 134.96408 | 12182 ft | 295 kts | 356° |
| 2026-05-04 04:05 | 34.08327 | 134.96790 | 11544 ft | 303 kts | 357° |
| 2026-05-04 04:05 | 34.10427 | 134.97185 | 10941 ft | 308 kts | 358° |
| 2026-05-04 04:05 | 34.12563 | 134.97591 | 10356 ft | 312 kts | 359° |
| 2026-05-04 04:06 | 34.14729 | 134.98006 | 9778 ft | 315 kts | 360° |
| 2026-05-04 04:06 | 34.16903 | 134.98424 | 9125 ft | 317 kts | 0° |
| 2026-05-04 04:06 | 34.19109 | 134.98848 | 8515 ft | 324 kts | 0° |
| 2026-05-04 04:06 | 34.21350 | 134.99277 | 7916 ft | 326 kts | 0° |
| 2026-05-04 04:07 | 34.23547 | 134.99702 | 7324 ft | 320 kts | 1° |
| 2026-05-04 04:07 | 34.25724 | 135.00123 | 6696 ft | 312 kts | 1° |
| 2026-05-04 04:07 | 34.27841 | 135.00554 | 6073 ft | 307 kts | 5° |
| 2026-05-04 04:07 | 34.29858 | 135.01456 | 5412 ft | 310 kts | 19° |
| 2026-05-04 04:08 | 34.31766 | 135.02628 | 4799 ft | 305 kts | 20° |
| 2026-05-04 04:08 | 34.33598 | 135.03794 | 4504 ft | 289 kts | 20° |
| 2026-05-04 04:08 | 34.35333 | 135.04893 | 4228 ft | 274 kts | 19° |
| 2026-05-04 04:08 | 34.36984 | 135.05925 | 4034 ft | 258 kts | 19° |
| 2026-05-04 04:09 | 34.38522 | 135.06878 | 3981 ft | 239 kts | 18° |
| 2026-05-04 04:09 | 34.39943 | 135.07754 | 3983 ft | 221 kts | 18° |
| 2026-05-04 04:09 | 34.41311 | 135.08584 | 3987 ft | 218 kts | 17° |
| 2026-05-04 04:09 | 34.42656 | 135.09394 | 3996 ft | 219 kts | 17° |
| 2026-05-04 04:10 | 34.44026 | 135.10219 | 4008 ft | 220 kts | 17° |
| 2026-05-04 04:10 | 34.45402 | 135.11049 | 3983 ft | 221 kts | 17° |
| 2026-05-04 04:10 | 34.46780 | 135.11882 | 3986 ft | 222 kts | 18° |
| 2026-05-04 04:10 | 34.48163 | 135.12719 | 3978 ft | 222 kts | 18° |
| 2026-05-04 04:11 | 34.49542 | 135.13555 | 3998 ft | 222 kts | 18° |
| 2026-05-04 04:11 | 34.50921 | 135.14391 | 3993 ft | 221 kts | 18° |
| 2026-05-04 04:11 | 34.52295 | 135.15224 | 3988 ft | 220 kts | 18° |
| 2026-05-04 04:11 | 34.53666 | 135.16056 | 3991 ft | 220 kts | 18° |
| 2026-05-04 04:12 | 34.55034 | 135.16886 | 3993 ft | 219 kts | 18° |
| 2026-05-04 04:12 | 34.56397 | 135.17714 | 3995 ft | 219 kts | 18° |
| 2026-05-04 04:12 | 34.57763 | 135.18543 | 3980 ft | 220 kts | 18° |
| 2026-05-04 04:12 | 34.59123 | 135.19368 | 3972 ft | 222 kts | 19° |
| 2026-05-04 04:13 | 34.60322 | 135.20596 | 3966 ft | 234 kts | 56° |
| 2026-05-04 04:13 | 34.60680 | 135.22494 | 4020 ft | 232 kts | 90° |
| 2026-05-04 04:13 | 34.60617 | 135.24455 | 4019 ft | 232 kts | 91° |
| 2026-05-04 04:13 | 34.60562 | 135.26400 | 3968 ft | 228 kts | 90° |
| 2026-05-04 04:14 | 34.60514 | 135.28319 | 3713 ft | 227 kts | 90° |
| 2026-05-04 04:14 | 34.60471 | 135.30238 | 3393 ft | 227 kts | 90° |
| 2026-05-04 04:14 | 34.60430 | 135.32145 | 3126 ft | 224 kts | 90° |
| 2026-05-04 04:14 | 34.60390 | 135.34039 | 2749 ft | 226 kts | 91° |
| 2026-05-04 04:15 | 34.60136 | 135.35892 | 2583 ft | 220 kts | 121° |
| 2026-05-04 04:15 | 34.59153 | 135.37164 | 2560 ft | 204 kts | 159° |
| 2026-05-04 04:15 | 34.57862 | 135.37674 | 2349 ft | 189 kts | 185° |
| 2026-05-04 04:15 | 34.56575 | 135.37681 | 2064 ft | 181 kts | 193° |
| 2026-05-04 04:16 | 34.55375 | 135.37327 | 2032 ft | 175 kts | 212° |
| 2026-05-04 04:16 | 34.54262 | 135.36780 | 1920 ft | 169 kts | 211° |
| 2026-05-04 04:16 | 34.53311 | 135.36039 | 1643 ft | 158 kts | 234° |
| 2026-05-04 04:16 | 34.52590 | 135.35033 | 1607 ft | 163 kts | 233° |
| 2026-05-04 04:17 | 34.51851 | 135.34007 | 1607 ft | 160 kts | 235° |
| 2026-05-04 04:17 | 34.51145 | 135.32967 | 1589 ft | 159 kts | 236° |
| 2026-05-04 04:17 | 34.50439 | 135.31916 | 1599 ft | 162 kts | 236° |
| 2026-05-04 04:17 | 34.49724 | 135.30849 | 1460 ft | 165 kts | 236° |
| 2026-05-04 04:18 | 34.49008 | 135.29781 | 1273 ft | 163 kts | 237° |
| 2026-05-04 04:18 | 34.48292 | 135.28722 | 1055 ft | 163 kts | 238° |
| 2026-05-04 04:18 | 34.47586 | 135.27665 | 864 ft | 160 kts | 238° |
| 2026-05-04 04:18 | 34.46899 | 135.26644 | 651 ft | 156 kts | 237° |
| 2026-05-04 04:19 | 34.46229 | 135.25645 | 421 ft | 148 kts | 235° |
| 2026-05-04 04:19 | 34.45606 | 135.24715 | 221 ft | 139 kts | 237° |
| 2026-05-04 04:19 | 34.44988 | 135.23883 | 102 ft | 124 kts | 237° |
| 2026-05-04 04:19 | 34.44549 | 135.23099 | 28 ft | 95 kts | 234° |
| 2026-05-04 04:20 | 34.44264 | 135.22683 | 30 ft | 48 kts | 223° |
| 2026-05-04 04:20 | 34.44058 | 135.22410 | 26 ft | 40 kts | 232° |
| 2026-05-04 04:20 | 34.44004 | 135.22328 | 25 ft | 0 kts | 233° |
| 2026-05-04 04:21 | 34.43996 | 135.22315 | 25 ft | 3 kts | 233° |
| 2026-05-04 04:21 | 34.43976 | 135.22282 | 27 ft | 6 kts | 233° |
| 2026-05-04 04:21 | 34.43946 | 135.22240 | 27 ft | 7 kts | 223° |
| 2026-05-04 04:21 | 34.43898 | 135.22199 | 27 ft | 11 kts | 208° |
| 2026-05-04 04:22 | 34.43815 | 135.22146 | 23 ft | 16 kts | 208° |
| 2026-05-04 04:22 | 34.43692 | 135.22100 | 23 ft | 19 kts | 174° |
| 2026-05-04 04:22 | 34.43652 | 135.22146 | 22 ft | 2 kts | 71° |
| 2026-05-04 04:22 | 34.43668 | 135.22168 | 22 ft | 5 kts | 49° |
| 2026-05-04 04:23 | 34.43699 | 135.22211 | 22 ft | 9 kts | 49° |
| 2026-05-04 04:23 | 34.43728 | 135.22252 | 23 ft | 11 kts | 49° |
| 2026-05-04 04:23 | 34.43779 | 135.22339 | 25 ft | 15 kts | 68° |
| 2026-05-04 04:23 | 34.43702 | 135.22470 | 22 ft | 18 kts | 139° |
| 2026-05-04 04:24 | 34.43639 | 135.22544 | 22 ft | 19 kts | 143° |
| 2026-05-04 04:24 | 34.43529 | 135.22652 | 23 ft | 22 kts | 141° |
| 2026-05-04 04:24 | 34.43408 | 135.22774 | 22 ft | 22 kts | 140° |
| 2026-05-04 04:24 | 34.43289 | 135.22892 | 23 ft | 22 kts | 141° |
| 2026-05-04 04:25 | 34.43173 | 135.23007 | 24 ft | 21 kts | 139° |
| 2026-05-04 04:25 | 34.43060 | 135.23118 | 22 ft | 21 kts | 142° |
| 2026-05-04 04:25 | 34.42950 | 135.23224 | 22 ft | 20 kts | 141° |
| 2026-05-04 04:25 | 34.42844 | 135.23329 | 24 ft | 19 kts | 141° |
| 2026-05-04 04:26 | 34.42740 | 135.23428 | 23 ft | 19 kts | 140° |
| 2026-05-04 04:26 | 34.42650 | 135.23535 | 22 ft | 18 kts | 105° |
| 2026-05-04 04:26 | 34.42723 | 135.23646 | 23 ft | 17 kts | 44° |
| 2026-05-04 04:26 | 34.42786 | 135.23766 | 22 ft | 17 kts | 76° |
| 2026-05-04 04:27 | 34.42834 | 135.23889 | 22 ft | 16 kts | 50° |
| 2026-05-04 04:27 | 34.42903 | 135.23994 | 22 ft | 16 kts | 52° |
| 2026-05-04 04:27 | 34.42972 | 135.24007 | 22 ft | 10 kts | 320° |
| 2026-05-04 04:27 | 34.43010 | 135.23970 | 23 ft | 3 kts | 322° |
| 2026-05-04 04:28 | 34.43011 | 135.23969 | 23 ft | 0 kts | 322° |